地図

経路データ

SID SEASON NUMBER BASIN SUBBASIN NAME ISO_TIME NATURE LAT LON WMO_WIND WMO_PRES WMO_AGENCY TRACK_TYPE DIST2LAND LANDFALL IFLAG USA_AGENCY USA_ATCF_ID USA_LAT USA_LON USA_RECORD USA_STATUS USA_WIND USA_PRES USA_SSHS USA_R34_NE USA_R34_SE USA_R34_SW USA_R34_NW USA_R50_NE USA_R50_SE USA_R50_SW USA_R50_NW USA_R64_NE USA_R64_SE USA_R64_SW USA_R64_NW USA_POCI USA_ROCI USA_RMW USA_EYE TOKYO_LAT TOKYO_LON TOKYO_GRADE TOKYO_WIND TOKYO_PRES TOKYO_R50_DIR TOKYO_R50_LONG TOKYO_R50_SHORT TOKYO_R30_DIR TOKYO_R30_LONG TOKYO_R30_SHORT TOKYO_LAND CMA_LAT CMA_LON CMA_CAT CMA_WIND CMA_PRES HKO_LAT HKO_LON HKO_CAT HKO_WIND HKO_PRES NEWDELHI_LAT NEWDELHI_LON NEWDELHI_GRADE NEWDELHI_WIND NEWDELHI_PRES NEWDELHI_CI NEWDELHI_DP NEWDELHI_POCI REUNION_LAT REUNION_LON REUNION_TYPE REUNION_WIND REUNION_PRES REUNION_TNUM REUNION_CI REUNION_RMW REUNION_R34_NE REUNION_R34_SE REUNION_R34_SW REUNION_R34_NW REUNION_R50_NE REUNION_R50_SE REUNION_R50_SW REUNION_R50_NW REUNION_R64_NE REUNION_R64_SE REUNION_R64_SW REUNION_R64_NW BOM_LAT BOM_LON BOM_TYPE BOM_WIND BOM_PRES BOM_TNUM BOM_CI BOM_RMW BOM_R34_NE BOM_R34_SE BOM_R34_SW BOM_R34_NW BOM_R50_NE BOM_R50_SE BOM_R50_SW BOM_R50_NW BOM_R64_NE BOM_R64_SE BOM_R64_SW BOM_R64_NW BOM_ROCI BOM_POCI BOM_EYE BOM_POS_METHOD BOM_PRES_METHOD NADI_LAT NADI_LON NADI_CAT NADI_WIND NADI_PRES WELLINGTON_LAT WELLINGTON_LON WELLINGTON_WIND WELLINGTON_PRES DS824_LAT DS824_LON DS824_STAGE DS824_WIND DS824_PRES TD9636_LAT TD9636_LON TD9636_STAGE TD9636_WIND TD9636_PRES TD9635_LAT TD9635_LON TD9635_WIND TD9635_PRES TD9635_ROCI NEUMANN_LAT NEUMANN_LON NEUMANN_CLASS NEUMANN_WIND NEUMANN_PRES MLC_LAT MLC_LON MLC_CLASS MLC_WIND MLC_PRES USA_GUST BOM_GUST BOM_GUST_PER REUNION_GUST REUNION_GUST_PER USA_SEAHGT USA_SEARAD_NE USA_SEARAD_SE USA_SEARAD_SW USA_SEARAD_NW STORM_SPEED STORM_DIR
1969046S19123 1969 12 SI WA GLADYS 1969-02-14 23:00:00 NR -19.0000 123.300 main 0 0 __________O___ -1 -19.0000 123.300 1 7 265
1969046S19123 1969 12 SI WA GLADYS 1969-02-15 00:00:00 TS -19.0095 123.181 main 0 0 O________OP___ jtwc_sh SH231969 -19.0000 123.200 -1 -19.0000 123.200 TC -19.0190 123.162 1 8 259
1969046S19123 1969 12 SI WA GLADYS 1969-02-15 01:00:00 TS -19.0485 123.035 1000 bom main 0 0 P_____O__PP___ SH231969 -19.0190 123.053 -1 -19.2000 123.000 1000 -19.0190 123.053 TC -19.0374 123.023 1 9 261
1969046S19123 1969 12 SI WA GLADYS 1969-02-15 03:00:00 TS -19.0793 122.733 main 0 0 P_____P__PP___ SH231969 -19.0552 122.758 -1 -19.1679 122.640 999 -19.0552 122.758 TC -19.0711 122.742 1 9 265
1969046S19123 1969 12 SI WA GLADYS 1969-02-15 06:00:00 TS -19.1129 122.270 main 0 0 O_____P__OP_O_ jtwc_sh SH231969 -19.1000 122.300 -1 -19.1260 122.103 999 -19.1000 122.300 TC -19.1071 122.305 1 -19.2000 122.400 TC 35 999 9 268
1969046S19123 1969 12 SI WA GLADYS 1969-02-15 09:00:00 TS -19.1172 121.768 main 0 0 P_____P__PP_P_ SH231969 -19.1224 121.815 -1 -19.1020 121.574 999 -19.1224 121.815 TC -19.1155 121.836 1 -19.1305 121.827 TC 35 998 10 270
1969046S19123 1969 12 SI WA GLADYS 1969-02-15 10:00:00 TS -19.1132 121.599 999 bom main 0 0 P_____O__PP_P_ SH231969 -19.1211 121.647 -1 -19.1000 121.400 999 -19.1211 121.647 TC -19.1102 121.671 1 -19.1139 121.644 TC 35 998 10 272
1969046S19123 1969 12 SI WA GLADYS 1969-02-15 11:00:00 TS -19.1066 121.429 main 10 10 P_____P__PO_P_ SH231969 -19.1140 121.475 -1 -19.1016 121.228 -19.1140 121.475 TC -19.1000 121.500 1 -19.1033 121.468 TC 35 998 10 273
1969046S19123 1969 12 SI WA GLADYS 1969-02-15 12:00:00 TS -19.0983 121.256 main 15 15 O_____P__OP_O_ jtwc_sh SH231969 -19.1000 121.300 -1 -19.1066 121.057 -19.1000 121.300 TC -19.0848 121.324 1 -19.1000 121.300 TC 35 998 10 274
1969046S19123 1969 12 SI WA GLADYS 1969-02-15 15:00:00 TS -19.0606 120.736 main 59 59 P_____P__PP_P_ SH231969 -19.0074 120.757 -1 -19.1377 120.554 -19.0074 120.757 TC -19.0157 120.770 1 -19.1347 120.843 TC 35 998 10 274
1969046S19123 1969 12 SI WA GLADYS 1969-02-15 18:00:00 TS -19.0226 120.214 main 94 94 O_____P__OP_O_ jtwc_sh SH231969 -18.9000 120.200 -1 -19.1850 120.066 -18.9000 120.200 TC -18.9280 120.202 1 -19.2000 120.400 TC 35 998 10 273
1969046S19123 1969 12 SI WA GLADYS 1969-02-15 21:00:00 TS -19.0049 119.678 main 112 112 P_____P__PP_P_ SH231969 -18.8425 119.628 -1 -19.2382 119.596 -18.8425 119.628 TC -18.8436 119.648 1 -19.2575 119.893 TC 35 997 10 272
1969046S19123 1969 12 SI WA GLADYS 1969-02-15 23:00:00 TS -18.9978 119.337 main 123 123 P_____P__PO_P_ SH231969 -18.8141 119.266 -1 -19.2716 119.294 -18.8141 119.266 TC -18.8000 119.300 2 -19.2891 119.558 TC 35 997 9 270
1969046S19123 1969 12 SI WA GLADYS 1969-02-16 00:00:00 TS -19.0088 119.178 main 123 123 O_____P__OP_O_ jtwc_sh SH231969 -18.8000 119.100 -1 -19.2867 119.146 -18.8000 119.100 TC -18.7848 119.138 2 -19.3000 119.400 TC 35 997 9 267
1969046S19123 1969 12 SI WA GLADYS 1969-02-16 01:00:00 TS -19.0142 119.030 997 bom main 123 123 P_____O__PP_P_ SH231969 -18.7779 118.950 -1 -19.3000 119.000 997 -18.7779 118.950 TC -18.7719 118.980 2 -19.3056 119.253 TC 35 996 8 270
1969046S19123 1969 12 SI WA GLADYS 1969-02-16 03:00:00 TS -19.0055 118.753 main 126 126 P_____P__PP_P_ SH231969 -18.7348 118.677 -1 -19.2992 118.713 -18.7348 118.677 TC -18.7539 118.678 2 -19.3074 118.977 TC 35 996 8 272
1969046S19123 1969 12 SI WA GLADYS 1969-02-16 06:00:00 TS -18.9952 118.361 main 143 143 O_____P__OP_O_ jtwc_sh SH231969 -18.7000 118.300 -1 -19.2850 118.301 -18.7000 118.300 TC -18.7477 118.251 2 -19.3000 118.600 TC 35 996 7 270
1969046S19123 1969 12 SI WA GLADYS 1969-02-16 09:00:00 TS -19.0006 117.972 main 156 156 P_____P__PP_P_ SH231969 -18.7274 117.900 -1 -19.2605 117.908 -18.7274 117.900 TC -18.7690 117.853 2 -19.3073 118.250 TC 37 995 7 268
1969046S19123 1969 12 SI WA GLADYS 1969-02-16 11:00:00 TS -19.0148 117.718 main 162 162 P_____P__PO_P_ SH231969 -18.7723 117.633 -1 -19.2415 117.655 -18.7723 117.633 TC -18.8000 117.600 2 -19.3056 118.020 TC 39 995 7 266
1969046S19123 1969 12 SI WA GLADYS 1969-02-16 12:00:00 TS -19.0237 117.589 main 165 165 O_____P__OP_O_ jtwc_sh SH231969 -18.8000 117.500 -1 -19.2318 117.531 -18.8000 117.500 TC -18.8198 117.470 2 -19.3000 117.900 TC 40 995 7 266
1969046S19123 1969 12 SI WA GLADYS 1969-02-16 15:00:00 TS -19.0529 117.196 main 172 167 P_____P__PP_P_ SH231969 -18.8925 117.085 -1 -19.2046 117.167 -18.8925 117.085 TC -18.9014 117.094 2 -19.2500 117.500 TC 40 994 7 264
1969046S19123 1969 12 SI WA GLADYS 1969-02-16 18:00:00 TS -19.0939 116.819 main 167 167 O_____P__OP_O_ jtwc_sh SH231969 -19.0000 116.700 -1 -19.1848 116.812 -19.0000 116.700 TC -19.0066 116.740 2 -19.2000 117.100 TC 40 994 7 262
1969046S19123 1969 12 SI WA GLADYS 1969-02-16 21:00:00 TS -19.1441 116.478 main 169 159 P_____P__PP_P_ SH231969 -19.0999 116.385 -1 -19.1782 116.463 -19.0999 116.385 TC -19.1227 116.408 2 -19.1848 116.750 TC 40 993 6 260
1969046S19123 1969 12 SI WA GLADYS 1969-02-16 23:00:00 TS -19.1834 116.261 main 162 162 P_____P__PO_P_ SH231969 -19.1666 116.195 -1 -19.1840 116.232 -19.1666 116.195 TC -19.2000 116.200 2 -19.1916 116.520 TC 40 993 6 259
1969046S19123 1969 12 SI WA GLADYS 1969-02-17 00:00:00 TS -19.2042 116.152 main 165 165 O_____P__OP_O_ jtwc_sh SH231969 -19.2000 116.100 -1 -19.1906 116.116 -19.2000 116.100 TC -19.2345 116.097 2 -19.2000 116.400 TC 40 993 6 258
1969046S19123 1969 12 SI WA GLADYS 1969-02-17 01:00:00 TS -19.2262 116.038 993 bom main 172 167 P_____O__PP_P_ SH231969 -19.2333 115.997 -1 -19.2000 116.000 993 -19.2333 115.997 TC -19.2691 115.997 2 -19.2110 116.265 TC 40 992 7 258
1969046S19123 1969 12 SI WA GLADYS 1969-02-17 03:00:00 TS -19.2736 115.809 main 173 173 P_____P__PP_P_ SH231969 -19.3000 115.792 -1 -19.2229 115.752 991 -19.3000 115.792 TC -19.3385 115.804 2 -19.2426 115.985 TC 42 992 6 256
1969046S19123 1969 12 SI WA GLADYS 1969-02-17 06:00:00 TS -19.3528 115.489 main 182 182 O_____P__OP_O_ jtwc_sh SH231969 -19.4000 115.500 -1 -19.2760 115.404 990 -19.4000 115.500 TC -19.4410 115.530 2 -19.3000 115.600 TC 45 991 6 255
1969046S19123 1969 12 SI WA GLADYS 1969-02-17 07:00:00 TS -19.3806 115.395 990 bom main 187 187 P_____O__PP_P_ SH231969 -19.4333 115.411 -1 -19.3000 115.300 990 -19.4333 115.411 TC -19.4743 115.442 2 -19.3140 115.500 TC 45 990 5 251
1969046S19123 1969 12 SI WA GLADYS 1969-02-17 09:00:00 TS -19.4399 115.222 main 197 188 P_____P__PP_P_ SH231969 -19.4999 115.242 -1 -19.3617 115.117 988 -19.4999 115.242 TC -19.5389 115.270 2 -19.3424 115.327 TC 47 989 5 249
1969046S19123 1969 12 SI WA GLADYS 1969-02-17 11:00:00 TS -19.5017 115.061 main 194 194 P_____P__PO_P_ SH231969 -19.5666 115.081 -1 -19.4323 114.954 987 -19.5666 115.081 TC -19.6000 115.100 1 -19.3776 115.175 TC 49 988 5 248
1969046S19123 1969 12 SI WA GLADYS 1969-02-17 12:00:00 TS -19.5328 114.981 main 200 197 O_____P__OP_O_ jtwc_sh SH231969 -19.6000 115.000 -1 -19.4672 114.877 987 -19.6000 115.000 TC -19.6296 115.006 1 -19.4000 115.100 TC 50 988 5 248
1969046S19123 1969 12 SI WA GLADYS 1969-02-17 13:00:00 TS -19.5641 114.896 987 bom main 197 197 P_____O__PP_P_ SH231969 -19.6359 114.917 -1 -19.5000 114.800 987 4 -19.6359 114.917 TC -19.6583 114.912 1 -19.4302 115.017 TC 49 988 5 250
1969046S19123 1969 12 SI WA GLADYS 1969-02-17 15:00:00 TS -19.6229 114.723 main 209 207 P_____P__PP_P_ SH231969 -19.7075 114.750 -1 -19.5454 114.625 988 -19.7075 114.750 TC -19.7134 114.726 1 -19.5000 114.850 TC 47 989 5 252
1969046S19123 1969 12 SI WA GLADYS 1969-02-17 18:00:00 TS -19.6990 114.466 main 214 214 O_____P__OP_O_ jtwc_sh SH231969 -19.8000 114.500 -1 -19.5951 114.360 991 -19.8000 114.500 TC -19.7897 114.462 1 -19.6000 114.600 TC 45 990 5 255
1969046S19123 1969 12 SI WA GLADYS 1969-02-17 21:00:00 TS -19.7515 114.208 main 224 224 P_____P__PP_P_ SH231969 -19.8575 114.227 -1 -19.6357 114.104 993 -19.8575 114.227 TC -19.8584 114.230 1 -19.6500 114.335 TC 42 992 5 258
1969046S19123 1969 12 SI WA GLADYS 1969-02-17 23:00:00 TS -19.7830 114.054 main 228 228 P_____P__PO_P_ SH231969 -19.8860 114.066 -1 -19.6646 113.945 995 -19.8860 114.066 TC -19.9000 114.100 1 -19.6803 114.172 TC 40 994 4 257
1969046S19123 1969 12 SI WA GLADYS 1969-02-18 00:00:00 TS -19.8000 113.987 main 232 232 O_____P__OP_O_ jtwc_sh SH231969 -19.9000 114.000 -1 -19.6812 113.871 996 -19.9000 114.000 TC -19.9187 114.049 1 -19.7000 114.100 TC 40 995 4 252
1969046S19123 1969 12 SI WA GLADYS 1969-02-18 01:00:00 TS -19.8213 113.928 997 bom main 235 223 P_____O__PP_P_ SH231969 -19.9166 113.947 -1 -19.7000 113.800 997 -19.9166 113.947 TC -19.9362 114.004 1 -19.7276 114.036 TC 39 995 3 244
1969046S19123 1969 12 SI WA GLADYS 1969-02-18 03:00:00 TS -19.8713 113.829 main 224 224 P_____P__PP_P_ SH231969 -19.9499 113.870 -1 -19.7649 113.671 -19.9499 113.870 TC -19.9688 113.930 1 -19.7925 113.928 TC 37 996 3 237
1969046S19123 1969 12 SI WA GLADYS 1969-02-18 06:00:00 TS -19.9536 113.714 main 214 214 O_____P__OP_O_ jtwc_sh SH231969 -20.0000 113.800 -1 -19.8817 113.504 -20.0000 113.800 TC -20.0150 113.843 1 -19.9000 113.800 TC 35 997 3 229
1969046S19123 1969 12 SI WA GLADYS 1969-02-18 09:00:00 TS -20.0364 113.624 main 216 205 P_____P__PP_P_ SH231969 -20.0425 113.765 -1 -20.0152 113.367 -20.0425 113.765 TC -20.0634 113.762 1 -19.9925 113.692 TC 35 997 2 223
1969046S19123 1969 12 SI WA GLADYS 1969-02-18 11:00:00 TS -20.0973 113.566 main 205 205 P_____P__PO_P_ SH231969 -20.0776 113.731 -1 -20.1097 113.289 -20.0776 113.731 TC -20.1000 113.700 1 -20.0609 113.631 TC 35 997 3 224
1969046S19123 1969 12 SI WA GLADYS 1969-02-18 12:00:00 TS -20.1314 113.531 main 207 197 O_____P__OP_O_ jtwc_sh SH231969 -20.1000 113.700 -1 -20.1578 113.255 -20.1000 113.700 TC -20.1241 113.652 1 -20.1000 113.600 TC 35 998 3 227
1969046S19123 1969 12 SI WA GLADYS 1969-02-18 15:00:00 TS -20.2508 113.393 main 189 182 P_____P__PP_P_ SH231969 -20.2001 113.508 -1 -20.3022 113.166 -20.2001 113.508 TC -20.2031 113.494 1 -20.2500 113.500 TC 32 998 4 228
1969046S19123 1969 12 SI WA GLADYS 1969-02-18 18:00:00 TS -20.3683 113.255 main 182 177 O_____P__OP_O_ jtwc_sh SH231969 -20.3000 113.300 -1 -20.4409 113.098 -20.3000 113.300 TC -20.2844 113.332 1 -20.4000 113.400 TC 30 999 3 227
1969046S19123 1969 12 SI WA GLADYS 1969-02-18 21:00:00 TS -20.4586 113.155 main 177 177 P_____P__PP_P_ SH231969 -20.3575 113.177 -1 -20.5663 113.047 -20.3575 113.177 TC -20.3589 113.182 1 -20.5075 113.300 TC 30 999 2 226
1969046S19123 1969 12 SI WA GLADYS 1969-02-18 23:00:00 TS -20.5085 113.102 main 182 182 P_____P__PO_P_ SH231969 -20.3859 113.122 -1 -20.6389 113.021 -20.3859 113.122 TC -20.4000 113.100 1 -20.5693 113.233 TC 30 999 2 222
1969046S19123 1969 12 SI WA GLADYS 1969-02-19 00:00:00 TS -20.5310 113.080 main 182 182 O_____P__OP_O_ jtwc_sh SH231969 -20.4000 113.100 -1 -20.6710 113.010 -20.4000 113.100 TC -20.4150 113.070 1 -20.6000 113.200 TC 30 1000 2 221
1969046S19123 1969 12 SI WA GLADYS 1969-02-19 01:00:00 TS -20.5506 113.054 1001 bom main 172 172 P_____O__PP_P_ SH231969 -20.4193 113.078 -1 -20.7000 113.000 1001 -20.4193 113.078 TC -20.4280 113.044 1 -20.6316 113.167 TC 29 1000 2 225
1969046S19123 1969 12 SI WA GLADYS 1969-02-19 03:00:00 TS -20.5869 113.016 main 178 178 P_____P__PP_P_ SH231969 -20.4575 113.043 -1 -20.7480 112.984 -20.4575 113.043 TC -20.4490 113.002 1 -20.6975 113.100 TC 27 1000 1 221
1969046S19123 1969 12 SI WA GLADYS 1969-02-19 06:00:00 TS -20.6240 112.976 main 178 178 O_____P__OP_O_ jtwc_sh SH231969 -20.5000 113.000 -1 -20.7969 112.968 -20.5000 113.000 TC -20.4715 112.957 1 -20.8000 113.000 TC 25 1001 1 240
1969046S19123 1969 12 SI WA GLADYS 1969-02-19 09:00:00 TS -20.6270 112.945 main 184 184 P_____P__PP___ SH231969 -20.5000 112.950 -1 -20.8215 112.959 -20.5000 112.950 TC -20.4885 112.923 1 TC 1 263
1969046S19123 1969 12 SI WA GLADYS 1969-02-19 11:00:00 TS -20.6291 112.927 main 184 184 P_____P__PO___ SH231969 -20.4969 112.917 -1 -20.8262 112.958 -20.4969 112.917 TC -20.5000 112.900 1 TC 1 0
1969046S19123 1969 12 SI WA GLADYS 1969-02-19 12:00:00 TS -20.6455 112.920 main 184 176 O_____P__OP___ jtwc_sh SH231969 -20.5000 112.900 -1 -20.8255 112.958 -20.5000 112.900 TC -20.5064 112.887 1 1 0
1969046S19123 1969 12 SI WA GLADYS 1969-02-19 15:00:00 TS -20.6711 112.902 main 176 176 P_____P__PP___ SH231969 -20.5375 112.850 -1 -20.8129 112.962 -20.5375 112.850 TC -20.5284 112.843 1 1 182
1969046S19123 1969 12 SI WA GLADYS 1969-02-19 18:00:00 TS -20.7014 112.902 main 176 176 O_____P__OP___ jtwc_sh SH231969 -20.6000 112.800 -1 -20.7875 112.971 -20.6000 112.800 TC -20.5538 112.793 1 0 178
1969046S19123 1969 12 SI WA GLADYS 1969-02-19 21:00:00 TS -20.7107 112.928 main 176 176 ______P___P___ SH231969 -1 -20.7531 112.982 TC -20.5812 112.738 1 0 90
1969046S19123 1969 12 SI WA GLADYS 1969-02-19 23:00:00 TS -20.7014 112.943 main 176 169 ______P___O___ SH231969 -1 -20.7271 112.991 TC -20.6000 112.700 1 1 89
1969046S19123 1969 12 SI WA GLADYS 1969-02-20 00:00:00 TS -20.7091 112.997 main 169 169 ______P_______ -1 -20.7136 112.995 1 2 89
1969046S19123 1969 12 SI WA GLADYS 1969-02-20 01:00:00 NR -20.7000 113.000 1005 bom main 169 ______O_______ -1 -20.7000 113.000 1005 1 1 0

IBTrACS Databaseについて

本データベースは、米国NOAAが公開する1842年以降の世界の熱帯低気圧のベストトラックデータアーカイブInternational Best Track Archive for Climate Stewardship (IBTrACS)を、ウェブで閲覧しやすい形式に変換したものです。

最終更新日:2021-10-21